• Join FlightAware (Why Join?)
  • Login
  • US Flag 
12:34PM EST


 

Airport Tracker/Info


-or-


 

Live Flight TrackerFlight Track Log ✈ N6045S ✈ 26-Apr-2013 ✈ KBTV - KPNE

Flight Track Log - Related Links

Times and Time Zones

All times are in EDT time to prevent confusion due to time zone crossing. See the N6045S flight status page for this flight to view local times or setup timezone preferences in your user account.

Time Position Orientation Groundspeed Altitude Reporting Facility
EDT Latitude Longitude Course Direction KTS MPH feet Rate Location/Type
08:24AM 44.3717 -73.1631 200° South 145 167 5,600  Level Boston Center
08:25AM 44.3297 -73.1800 196° South 145 167 7,500 1,620 Climbing Boston Center
08:26AM 44.2922 -73.1942 195° South 150 173 9,200 1,560 Climbing Boston Center
08:27AM 44.2547 -73.2025 189° South 150 173 10,700 1,500 Climbing Boston Center
08:28AM 44.1402 -73.2667 180° South  Level FlightAware Approximate
08:28AM 44.2108 -73.2192 195° South 150 173 12,300  Level Boston Center
08:29AM 44.0869 -73.2899 200° South  Level FlightAware Approximate
08:29AM 44.1689 -73.2361 196° South 155 178 13,700  Level Boston Center
08:30AM 44.1272 -73.2528 196° South 161 185 15,200 1,260 Climbing Boston Center
08:31AM 44.0792 -73.2722 196° South 170 196 16,300 600 Climbing Boston Center
08:32AM 44.0289 -73.2978 200° South 190 219 16,400  Climbing Boston Center
08:33AM 43.9703 -73.3286 201° Southwest 214 246 16,400  Level Boston Center
08:34AM 43.9014 -73.3592 198° South 233 268 16,400  Level Boston Center
08:35AM 43.8261 -73.3925 198° South 238 274 16,400  Level Boston Center
08:36AM 43.7633 -73.4233 200° South 238 274 16,400  Level Boston Center
08:37AM 43.7047 -73.4511 199° South 238 274 16,400  Level Boston Center
08:38AM 43.6608 -73.4703 198° South 238 274 16,400  Level Boston Center
08:39AM 43.5856 -73.5036 198° South 243 280 16,400  Level Boston Center
08:40AM 43.5228 -73.5311 198° South 248 285 16,400  Level Boston Center
08:41AM 43.4556 -73.5611 198° South 248 285 16,400  Level Boston Center
08:42AM 43.3825 -73.5942 198° South 248 285 16,400  Level Boston Center
08:43AM 43.3156 -73.6242 198° South 253 291 16,400  Level Boston Center
08:44AM 43.2506 -73.6544 199° South 247 284 16,400  Level Boston Center
08:45AM 43.1856 -73.6817 197° South 247 284 16,400  Level Boston Center
08:46AM 43.1228 -73.7117 199° South 247 284 16,500  Climbing Boston Center
08:47AM 43.0600 -73.7417 199° South 247 284 16,500  Level Boston Center
08:48AM 42.9969 -73.7686 197° South 247 284 16,500  Level Boston Center
08:49AM 42.9319 -73.7983 199° South 247 284 16,500  Level Boston Center
08:50AM 42.8672 -73.8253 197° South 247 284 16,500  Level Boston Center
08:51AM 42.8022 -73.8606 202° Southwest 247 284 16,500  Level Boston Center
08:52AM 42.7372 -73.8875 197° South 247 284 16,500  Level Boston Center
08:53AM 42.6700 -73.9169 198° South 247 284 16,500  Level Boston Center
08:54AM 42.6092 -73.9436 198° South 247 284 16,500  Level Boston Center
08:55AM 42.5444 -73.9703 197° South 247 284 16,500  Level Boston Center
08:56AM 42.4878 -73.9942 197° South 247 284 16,500  Level Boston Center
08:57AM 42.4144 -74.0261 198° South 252 290 16,500  Level Boston Center
08:58AM 42.3556 -74.0528 199° South 246 283 16,500  Level Boston Center
08:59AM 42.2842 -74.0847 198° South 252 290 16,500  Level Boston Center
09:00AM 42.2172 -74.1164 199° South 252 290 16,500  Level Boston Center
09:01AM 42.1522 -74.1428 197° South 247 284 16,500  Level Boston Center
09:02AM 42.0869 -74.1717 198° South 247 284 16,500 -60 Level Boston Center
09:03AM 42.0219 -74.1981 197° South 247 284 16,400 -60 Descending Boston Center
09:04AM 41.9550 -74.2267 198° South 247 284 16,400  Level Boston Center
09:05AM 41.8919 -74.2556 199° South 247 284 16,400  Level Boston Center
09:06AM 41.8247 -74.2844 198° South 254 292 16,400  Level Boston Center
09:07AM 41.7617 -74.3103 197° South 254 292 16,400  Level Boston Center
09:08AM 41.6925 -74.3389 197° South 249 287 16,400  Level Boston Center
09:09AM 41.6275 -74.3675 198° South 249 287 16,400  Level Boston Center
09:10AM 41.5619 -74.3947 197° South 250 288 16,400  Level New York Center
09:11AM 41.4944 -74.4242 198° South 250 288 16,400  Level New York Center
09:12AM 41.4292 -74.4511 197° South 250 288 16,500  Climbing New York Center
09:13AM 41.3617 -74.4806 198° South 250 288 16,500  Level New York Center
09:14AM 41.3167 -74.5000 198° South 256 295 16,500  Level New York TRACON
09:15AM 41.2500 -74.5333 201° Southwest 254 292 16,500  Level New York TRACON
09:16AM 41.1833 -74.5667 201° Southwest 252 290 16,500  Level New York TRACON
09:17AM 41.1000 -74.5833 189° South 254 292 16,500  Level New York TRACON
09:18AM 41.0500 -74.6167 207° Southwest 252 290 16,500  Level New York TRACON
09:18AM 41.0239 -74.6214 188° South 250 288 16,500  Level New York Center
09:19AM 40.9561 -74.6506 198° South 250 288 16,500  Level New York Center
09:20AM 40.8906 -74.6797 199° South 250 288 16,500  Level New York Center
09:21AM 40.8231 -74.7061 196° South 250 288 16,500 -180 Level New York Center
09:22AM 40.7556 -74.7350 198° South 250 288 16,200 -780 Descending New York Center
09:23AM 40.6919 -74.7614 197° South 255 293 15,000 -1,320 Descending New York Center
09:24AM 40.6181 -74.7900 196° South 255 293 13,600 -1,380 Descending New York Center
09:25AM 40.5667 -74.8167 202° Southwest 251 289 12,700 -1,500 Descending New York TRACON
09:26AM 40.5000 -74.8333 191° South 257 296 11,100 -1,500 Descending New York TRACON
09:27AM 40.4333 -74.8667 201° Southwest 253 291 9,800 -1,320 Descending New York TRACON
09:28AM 40.3667 -74.9000 201° Southwest 237 273 8,500 -1,440 Descending New York TRACON
09:29AM 40.3167 -74.9167 194° South 221 254 7,100 -1,020 Descending New York TRACON
09:31AM 40.2000 -74.9833 204° Southwest 213 245 5,000 -1,080 Descending Philadelphia TRACON
09:32AM 40.1333 -75.0000 191° South 221 254 3,200 -1,320 Descending Philadelphia TRACON
09:33AM 40.1000 -74.9667 143° Southeast 178 205 2,600 -720 Descending Philadelphia TRACON
09:34AM 40.0667 -74.9500 159° South 148 170 2,000 -840 Descending Philadelphia TRACON
09:35AM 40.0500 -74.9833 237° Southwest 106 122 800 -1,020 Descending Philadelphia TRACON
09:37AM 40.0667 -75.0000 270° West  Level FlightAware Approximate
09:44AM 40.0819 -75.0106 270° West  Level Estimated
09:45AM 40.0819 -75.0106 270° West  Level Estimated